Time;durP1;ratioP1;P1;durP2;ratioP2;P2;SDS_P1;SDS_P2;PMS_P1;PMS_P2;Temp;Humidity;BMP_temperature;BMP_pressure;BME280_temperature;BME280_humidity;BME280_pressure;Samples;Min_cycle;Max_cycle;Signal;HPM_P1;HPM_P2
2024/03/13 00:02:04;;;;;;;9.25;5.85;;;16.30;99.90;;;;;;5025660;28;20454;-74
2024/03/13 00:04:43;;;;;;;8.63;5.80;;;16.30;99.90;;;;;;5023518;28;20022;-72
2024/03/13 00:07:15;;;;;;;8.48;5.90;;;16.30;99.90;;;;;;5027684;28;20034;-75
2024/03/13 00:09:50;;;;;;;7.97;5.60;;;16.30;99.90;;;;;;5027447;28;20100;-74
2024/03/13 00:12:17;;;;;;;8.85;6.10;;;16.30;99.90;;;;;;5059452;28;20025;-74
2024/03/13 00:14:46;;;;;;;;;;;16.20;99.90;;;;;;5023236;28;20021;-73
2024/03/13 00:17:12;;;;;;;8.75;5.47;;;16.20;99.90;;;;;;5024327;28;19909;-74
2024/03/13 00:19:38;;;;;;;8.13;5.30;;;16.20;99.90;;;;;;5029006;28;20171;-74
2024/03/13 00:22:06;;;;;;;8.30;5.43;;;16.30;99.90;;;;;;5022765;28;20417;-74
2024/03/13 00:24:32;;;;;;;10.02;5.60;;;16.20;99.90;;;;;;5025314;28;20037;-74
2024/03/13 00:26:58;;;;;;;6.60;4.87;;;16.20;99.90;;;;;;5026611;28;20026;-74
2024/03/13 00:29:25;;;;;;;9.07;5.43;;;16.20;99.90;;;;;;5020961;28;20026;-74
2024/03/13 00:31:52;;;;;;;8.98;5.20;;;16.20;99.90;;;;;;5023711;28;20029;-73
2024/03/13 00:34:18;;;;;;;7.40;5.20;;;16.20;99.90;;;;;;5020427;28;20032;-74
2024/03/13 00:36:44;;;;;;;7.27;4.73;;;16.20;99.90;;;;;;5031636;28;20445;-74
2024/03/13 00:39:10;;;;;;;9.83;5.40;;;16.20;99.90;;;;;;5028920;28;20270;-73
2024/03/13 00:41:38;;;;;;;6.43;4.68;;;16.20;99.90;;;;;;5056889;28;20033;-74
2024/03/13 00:44:05;;;;;;;8.73;5.30;;;16.20;99.90;;;;;;5019428;28;20029;-74
2024/03/13 00:46:31;;;;;;;8.63;5.55;;;16.20;99.90;;;;;;5057681;28;20120;-74
2024/03/13 00:48:57;;;;;;;8.23;5.33;;;16.20;99.90;;;;;;5061090;28;20692;-74
2024/03/13 00:51:23;;;;;;;8.65;5.20;;;16.20;99.90;;;;;;5028684;28;20357;-74
2024/03/13 00:53:49;;;;;;;6.70;5.00;;;16.20;99.90;;;;;;5056489;28;20057;-74
2024/03/13 00:56:15;;;;;;;6.67;4.90;;;16.20;99.90;;;;;;5024692;28;20475;-74
2024/03/13 00:58:42;;;;;;;;;;;16.20;99.90;;;;;;5029733;28;20506;-74
2024/03/13 01:01:11;;;;;;;8.77;5.28;;;16.10;99.90;;;;;;5028813;28;20372;-74
2024/03/13 01:03:38;;;;;;;7.05;4.57;;;16.20;99.90;;;;;;5055659;28;20394;-74
2024/03/13 01:06:05;;;;;;;6.20;4.75;;;16.20;99.90;;;;;;5024089;28;20044;-74
2024/03/13 01:08:34;;;;;;;6.38;4.80;;;16.20;99.90;;;;;;5024025;28;20034;-73
2024/03/13 01:11:00;;;;;;;5.97;4.45;;;16.20;99.90;;;;;;5022071;28;20044;-73
2024/03/13 01:13:29;;;;;;;7.45;4.88;;;16.20;99.90;;;;;;5045108;28;20025;-74
2024/03/13 01:15:55;;;;;;;6.95;4.97;;;16.10;99.90;;;;;;5029169;28;20030;-74
2024/03/13 01:18:21;;;;;;;7.97;5.13;;;16.10;99.90;;;;;;5030112;28;20021;-74
2024/03/13 01:20:50;;;;;;;7.90;4.00;;;16.10;99.90;;;;;;5029025;28;20033;-73
2024/03/13 01:23:15;;;;;;;6.85;4.35;;;16.10;99.90;;;;;;5030325;28;20025;-73
2024/03/13 01:25:41;;;;;;;6.17;4.40;;;16.10;99.90;;;;;;5027612;28;20033;-74
2024/03/13 01:28:07;;;;;;;7.13;4.17;;;16.10;99.90;;;;;;5029336;28;20468;-73
2024/03/13 01:30:33;;;;;;;7.17;4.63;;;16.10;99.90;;;;;;5028424;28;20301;-74
2024/03/13 01:32:59;;;;;;;6.93;4.63;;;16.10;99.90;;;;;;5027682;28;20036;-74
2024/03/13 01:35:25;;;;;;;6.30;4.00;;;16.10;99.90;;;;;;5056159;28;20573;-73
2024/03/13 01:37:58;;;;;;;5.60;4.07;;;16.10;99.90;;;;;;5024029;28;21404;-74
2024/03/13 01:40:28;;;;;;;6.35;4.18;;;16.10;99.90;;;;;;5023540;28;20489;-73
2024/03/13 01:57:02;;;;;;;5.82;4.15;;;16.10;99.90;;;;;;5022998;28;20028;-73
2024/03/13 01:59:48;;;;;;;8.07;4.38;;;16.00;99.90;;;;;;5028073;28;20026;-74
2024/03/13 02:02:24;;;;;;;;;;;16.00;99.90;;;;;;5027371;28;20103;-74
2024/03/13 02:04:54;;;;;;;4.38;3.78;;;16.00;99.90;;;;;;5032416;28;19995;-74
2024/03/13 02:07:22;;;;;;;6.03;3.60;;;16.00;99.90;;;;;;5031353;28;20064;-73
2024/03/13 02:09:49;;;;;;;5.95;4.20;;;16.00;99.90;;;;;;5033050;28;20030;-73
2024/03/13 02:12:16;;;;;;;5.95;4.05;;;16.00;99.90;;;;;;5057579;28;20483;-73
2024/03/13 02:14:42;;;;;;;5.40;3.80;;;16.00;99.90;;;;;;5025709;28;20018;-74
2024/03/13 02:17:10;;;;;;;9.90;4.30;;;16.00;99.90;;;;;;5029435;28;20080;-73
2024/03/13 02:19:40;;;;;;;7.22;3.65;;;16.00;99.90;;;;;;5031321;28;20033;-74
2024/03/13 02:22:06;;;;;;;5.70;3.70;;;16.00;99.90;;;;;;5026785;28;20030;-73
2024/03/13 02:24:35;;;;;;;;;;;16.00;99.90;;;;;;5063971;28;20112;-74
2024/03/13 02:27:11;;;;;;;5.75;4.05;;;16.00;99.90;;;;;;5032697;28;19924;-74
2024/03/13 02:29:42;;;;;;;6.03;4.13;;;16.00;99.90;;;;;;5032386;28;20080;-74
2024/03/13 02:32:10;;;;;;;5.65;3.85;;;16.00;99.90;;;;;;5032570;28;20021;-74
2024/03/13 02:34:39;;;;;;;9.68;4.30;;;16.00;99.90;;;;;;5030193;28;20044;-74
2024/03/13 02:37:06;;;;;;;5.38;3.88;;;16.00;99.90;;;;;;5032280;28;20142;-74
2024/03/13 02:39:32;;;;;;;8.32;4.18;;;16.00;99.90;;;;;;5032892;28;20026;-73
2024/03/13 02:41:57;;;;;;;6.53;4.00;;;16.00;99.90;;;;;;5031971;28;20359;-75
2024/03/13 02:44:23;;;;;;;8.17;4.53;;;16.00;99.90;;;;;;5063653;28;20024;-73
2024/03/13 02:46:49;;;;;;;5.67;3.70;;;16.00;99.90;;;;;;5030117;28;20119;-74
2024/03/13 02:49:15;;;;;;;5.93;3.67;;;16.00;99.90;;;;;;5065063;28;20040;-74
2024/03/13 02:51:41;;;;;;;7.97;4.22;;;15.90;99.90;;;;;;5029804;28;20410;-73
2024/03/13 02:54:08;;;;;;;7.25;4.30;;;16.00;99.90;;;;;;5032024;28;20041;-74
2024/03/13 02:56:34;;;;;;;4.88;3.42;;;15.90;99.90;;;;;;5031349;28;20036;-73
2024/03/13 02:59:00;;;;;;;6.30;4.10;;;16.00;99.90;;;;;;5032178;28;20100;-74
2024/03/13 03:01:26;;;;;;;7.37;4.30;;;15.90;99.90;;;;;;5031243;28;20044;-74
2024/03/13 03:03:52;;;;;;;7.25;3.60;;;15.90;99.90;;;;;;5030793;28;20032;-74
2024/03/13 03:06:17;;;;;;;4.77;3.10;;;16.00;99.90;;;;;;5030162;28;20037;-74
2024/03/13 03:08:44;;;;;;;4.70;3.60;;;15.90;99.90;;;;;;5032541;28;20040;-73
2024/03/13 03:11:10;;;;;;;;;;;15.90;99.90;;;;;;5032428;28;20038;-74
2024/03/13 03:13:38;;;;;;;9.18;3.90;;;15.90;99.90;;;;;;5031737;28;19912;-74
2024/03/13 03:16:05;;;;;;;5.20;3.90;;;15.90;99.90;;;;;;5031912;28;20029;-74
2024/03/13 03:18:31;;;;;;;;;;;15.90;99.90;;;;;;5017634;28;20087;-73
2024/03/13 03:20:58;;;;;;;;;;;15.90;99.90;;;;;;5030439;28;20269;-73
2024/03/13 03:23:23;;;;;;;7.03;3.83;;;16.00;99.90;;;;;;5031022;28;19909;-74
2024/03/13 03:25:50;;;;;;;5.03;3.93;;;15.90;99.90;;;;;;5026242;28;20044;-74
2024/03/13 03:28:16;;;;;;;4.65;3.20;;;15.90;99.90;;;;;;5032018;28;20033;-73
2024/03/13 03:30:43;;;;;;;7.13;4.70;;;15.90;99.90;;;;;;5030552;28;20026;-73
2024/03/13 03:33:13;;;;;;;6.13;3.80;;;15.90;99.90;;;;;;5032379;28;20044;-74
2024/03/13 03:35:39;;;;;;;5.43;3.53;;;15.90;99.90;;;;;;5028993;28;20034;-74
2024/03/13 03:38:05;;;;;;;6.57;4.43;;;15.90;99.90;;;;;;5032522;28;20075;-74
2024/03/13 03:40:34;;;;;;;6.97;3.72;;;15.90;99.90;;;;;;5028877;28;20398;-73
2024/03/13 03:43:00;;;;;;;5.05;3.42;;;15.90;99.90;;;;;;5063658;28;20068;-74
2024/03/13 03:45:26;;;;;;;4.68;3.40;;;15.90;99.90;;;;;;5022683;28;20030;-74
2024/03/13 03:47:52;;;;;;;5.53;4.10;;;15.90;99.90;;;;;;5031450;28;20434;-73
2024/03/13 03:50:18;;;;;;;5.83;4.23;;;15.90;99.90;;;;;;5061095;28;20275;-74
2024/03/13 03:52:47;;;;;;;6.13;3.60;;;15.90;99.90;;;;;;5029887;28;20037;-74
2024/03/13 03:55:17;;;;;;;6.82;4.20;;;15.90;99.90;;;;;;5057343;28;20102;-73
2024/03/13 03:57:44;;;;;;;7.10;3.85;;;15.90;99.90;;;;;;5024775;28;20022;-73
2024/03/13 04:00:12;;;;;;;6.82;3.50;;;15.90;99.90;;;;;;5026330;28;20029;-74
2024/03/13 04:02:39;;;;;;;5.90;3.28;;;15.90;99.90;;;;;;5021339;28;20030;-74
2024/03/13 04:05:06;;;;;;;5.43;3.17;;;15.90;99.90;;;;;;5029362;28;20541;-73
2024/03/13 04:07:32;;;;;;;6.15;3.70;;;15.90;99.90;;;;;;5030366;28;20215;-74
2024/03/13 04:09:58;;;;;;;4.60;2.85;;;15.90;99.90;;;;;;5030838;28;20064;-73
2024/03/13 04:12:24;;;;;;;4.70;2.90;;;15.90;99.90;;;;;;5024606;28;20033;-74
2024/03/13 04:14:50;;;;;;;6.03;3.30;;;15.90;99.90;;;;;;5025234;28;20291;-74
2024/03/13 04:17:17;;;;;;;4.63;3.10;;;15.90;99.90;;;;;;5026910;28;20088;-73
2024/03/13 04:19:43;;;;;;;7.20;3.33;;;15.90;99.90;;;;;;5024712;28;20601;-73
2024/03/13 04:22:09;;;;;;;6.45;3.33;;;15.90;99.90;;;;;;5029027;28;20348;-74
2024/03/13 04:24:35;;;;;;;3.83;3.00;;;15.90;99.90;;;;;;5028667;28;20413;-74
2024/03/13 04:27:01;;;;;;;7.03;3.70;;;15.90;99.90;;;;;;5030384;28;20029;-74
2024/03/13 04:29:27;;;;;;;5.50;3.15;;;15.90;99.90;;;;;;5029696;28;20818;-73
2024/03/13 04:31:53;;;;;;;4.67;2.97;;;15.90;99.90;;;;;;5030299;28;20104;-74
2024/03/13 04:34:19;;;;;;;6.43;3.30;;;15.90;99.90;;;;;;5028361;28;20139;-73
2024/03/13 04:36:46;;;;;;;5.83;2.90;;;15.90;99.90;;;;;;5028024;28;20123;-73
2024/03/13 04:39:11;;;;;;;;;;;15.90;99.90;;;;;;5027501;28;20021;-73
2024/03/13 04:41:39;;;;;;;4.47;2.83;;;15.80;99.90;;;;;;5012480;28;19910;-73
2024/03/13 04:44:15;;;;;;;4.80;3.00;;;15.90;99.90;;;;;;5030973;28;20021;-74
2024/03/13 04:46:43;;;;;;;5.47;3.20;;;15.90;99.90;;;;;;5029675;28;20029;-73
2024/03/13 04:49:10;;;;;;;4.95;2.88;;;15.90;99.90;;;;;;5026170;28;20048;-73
2024/03/13 04:51:37;;;;;;;5.20;2.63;;;15.90;99.90;;;;;;5015397;28;20029;-73
2024/03/13 04:54:04;;;;;;;4.53;3.13;;;15.90;99.90;;;;;;5023570;28;20033;-73
2024/03/13 04:56:29;;;;;;;3.63;2.45;;;15.80;99.90;;;;;;5023184;28;20029;-74
2024/03/13 04:58:55;;;;;;;4.60;2.93;;;15.80;99.90;;;;;;5057207;28;20523;-73
2024/03/13 05:01:21;;;;;;;8.10;3.37;;;15.90;99.90;;;;;;5018476;28;20018;-74
2024/03/13 05:03:47;;;;;;;6.57;3.13;;;15.80;99.90;;;;;;5022222;28;20028;-74
2024/03/13 05:06:13;;;;;;;6.63;3.37;;;15.80;99.90;;;;;;5028456;28;20032;-73
2024/03/13 05:08:40;;;;;;;4.87;2.50;;;15.80;99.90;;;;;;5027778;28;20406;-75
2024/03/13 05:11:09;;;;;;;5.15;2.53;;;15.80;99.90;;;;;;5020999;28;20086;-73
2024/03/13 05:13:35;;;;;;;5.10;2.55;;;15.80;99.90;;;;;;5024991;28;20275;-73
2024/03/13 05:16:00;;;;;;;3.50;2.45;;;15.80;99.90;;;;;;5029782;28;20029;-73
2024/03/13 05:18:26;;;;;;;6.73;2.30;;;15.80;99.90;;;;;;5027394;28;20036;-73
2024/03/13 05:20:52;;;;;;;4.23;2.40;;;15.80;99.90;;;;;;5028996;28;20394;-74
2024/03/13 05:23:17;;;;;;;5.23;2.40;;;15.80;99.90;;;;;;5061367;28;20030;-73
2024/03/13 05:25:43;;;;;;;5.77;2.80;;;15.80;99.90;;;;;;5061391;28;20032;-74
2024/03/13 05:28:09;;;;;;;7.73;2.57;;;15.80;99.90;;;;;;5025408;28;20026;-73
2024/03/13 05:30:36;;;;;;;4.23;2.17;;;15.80;99.90;;;;;;5029344;28;20038;-73
2024/03/13 05:33:04;;;;;;;3.70;2.38;;;15.80;99.90;;;;;;5022535;28;20076;-73
2024/03/13 05:35:30;;;;;;;5.22;2.55;;;15.80;99.90;;;;;;5019965;28;20124;-74
2024/03/13 05:37:56;;;;;;;5.07;2.67;;;15.80;99.90;;;;;;5030313;28;20096;-74
2024/03/13 05:40:21;;;;;;;6.70;2.17;;;15.80;99.90;;;;;;5065422;28;20033;-73
2024/03/13 05:42:48;;;;;;;5.50;2.60;;;15.80;99.90;;;;;;5033624;28;20052;-74
2024/03/13 05:45:14;;;;;;;6.25;2.15;;;15.80;99.90;;;;;;5033892;28;20021;-73
2024/03/13 05:47:41;;;;;;;4.40;2.33;;;15.80;99.90;;;;;;5032566;28;21573;-74
2024/03/13 05:50:07;;;;;;;;;;;15.80;99.90;;;;;;5034093;28;20450;-73
2024/03/13 05:52:33;;;;;;;3.53;2.35;;;15.80;99.90;;;;;;5029385;28;19921;-73
2024/03/13 05:55:01;;;;;;;3.65;1.92;;;15.80;99.90;;;;;;5033615;28;20040;-74
2024/03/13 05:57:27;;;;;;;5.28;2.38;;;15.80;99.90;;;;;;5033529;28;20108;-73
2024/03/13 05:59:53;;;;;;;4.60;2.50;;;15.80;99.90;;;;;;5033277;28;20033;-73
2024/03/13 06:02:19;;;;;;;4.82;2.20;;;15.70;99.90;;;;;;5031483;28;20467;-73
2024/03/13 06:04:48;;;;;;;3.78;2.38;;;15.70;99.90;;;;;;5034077;28;20038;-73
2024/03/13 06:07:14;;;;;;;5.22;2.42;;;15.70;99.90;;;;;;5033518;28;20084;-73
2024/03/13 06:09:40;;;;;;;5.03;2.13;;;15.70;99.90;;;;;;5033808;28;20033;-73
2024/03/13 06:12:08;;;;;;;4.27;2.10;;;15.70;99.90;;;;;;5026051;28;20033;-73
2024/03/13 06:14:34;;;;;;;4.90;2.33;;;15.70;99.90;;;;;;5032351;28;20469;-74
2024/03/13 06:17:00;;;;;;;3.63;2.40;;;15.70;99.90;;;;;;5065783;28;20116;-77
2024/03/13 06:19:26;;;;;;;4.88;2.13;;;15.70;99.90;;;;;;5027373;28;20105;-74
2024/03/13 06:21:53;;;;;;;3.47;1.93;;;15.70;99.90;;;;;;5064433;28;20120;-73
2024/03/13 06:24:29;;;;;;;4.47;1.98;;;15.70;99.90;;;;;;5028921;28;20455;-73
2024/03/13 06:26:55;;;;;;;3.35;2.00;;;15.70;99.90;;;;;;5031339;28;20092;-74
2024/03/13 06:32:07;;;;;;;4.22;1.98;;;15.70;99.90;;;;;;5032750;28;20033;-73
2024/03/13 06:34:32;;;;;;;3.83;2.17;;;15.70;99.90;;;;;;5031868;28;20351;-73
2024/03/13 06:36:58;;;;;;;4.67;2.00;;;15.70;99.90;;;;;;5032103;28;20727;-73
2024/03/13 06:39:24;;;;;;;6.73;2.30;;;15.70;99.90;;;;;;5032800;28;20034;-73
2024/03/13 06:41:50;;;;;;;8.00;2.20;;;15.70;99.90;;;;;;5032767;28;20029;-74
2024/03/13 06:44:16;;;;;;;4.13;2.10;;;15.70;99.90;;;;;;5065076;28;20021;-73
2024/03/13 06:46:42;;;;;;;3.53;1.70;;;15.70;99.90;;;;;;5030299;28;20029;-73
2024/03/13 06:49:07;;;;;;;6.90;2.43;;;15.70;99.90;;;;;;5031182;28;20506;-73
2024/03/13 06:51:34;;;;;;;3.60;2.00;;;15.70;99.90;;;;;;5032615;28;20038;-73
2024/03/13 06:54:00;;;;;;;3.53;1.77;;;15.70;99.90;;;;;;5032695;28;20045;-73
2024/03/13 06:56:27;;;;;;;5.35;2.55;;;15.70;99.90;;;;;;5031986;28;20048;-74
2024/03/13 06:58:53;;;;;;;6.03;1.73;;;15.70;99.90;;;;;;5031396;28;20026;-74
2024/03/13 07:01:18;;;;;;;3.83;2.03;;;15.80;99.90;;;;;;5030535;28;20074;-74
2024/03/13 07:03:44;;;;;;;10.53;2.60;;;15.80;99.90;;;;;;5064683;28;20061;-74
2024/03/13 07:06:11;;;;;;;24.07;4.50;;;15.90;99.90;;;;;;5064570;28;20033;-72
2024/03/13 07:08:38;;;;;;;16.58;2.97;;;15.80;99.90;;;;;;5032420;28;20114;-73
2024/03/13 07:11:05;;;;;;;15.57;3.05;;;15.80;99.90;;;;;;5035173;28;20516;-73
2024/03/13 07:13:32;;;;;;;9.02;3.28;;;15.90;99.90;;;;;;5030455;28;20718;-73
2024/03/13 07:15:57;;;;;;;8.73;2.90;;;15.90;99.90;;;;;;5032171;28;20037;-73
2024/03/13 07:18:23;;;;;;;14.07;3.27;;;15.90;99.90;;;;;;5030501;28;20072;-73
2024/03/13 07:20:49;;;;;;;12.57;3.83;;;15.90;99.90;;;;;;5030746;28;20024;-73
2024/03/13 07:23:16;;;;;;;8.38;3.05;;;15.90;99.90;;;;;;5031529;28;20036;-74
2024/03/13 07:25:42;;;;;;;16.67;2.67;;;15.90;99.90;;;;;;5031399;28;20037;-73
2024/03/13 07:28:14;;;;;;;26.40;17.50;;;15.90;99.90;;;;;;5030048;28;20025;-75
2024/03/13 07:30:39;;;;;;;172.23;117.35;;;15.90;99.90;;;;;;5031606;28;20025;-75
2024/03/13 07:33:08;;;;;;;102.27;67.53;;;15.90;99.90;;;;;;5030812;28;20553;-73
2024/03/13 07:35:34;;;;;;;75.63;53.03;;;15.90;99.90;;;;;;5031999;28;20029;-74
2024/03/13 07:38:01;;;;;;;78.53;53.13;;;15.90;99.90;;;;;;5027123;28;20037;-73
2024/03/13 07:40:27;;;;;;;75.93;45.72;;;15.90;99.90;;;;;;5028792;28;20026;-74
2024/03/13 07:42:53;;;;;;;65.15;42.10;;;16.00;99.90;;;;;;5030038;28;20382;-73
2024/03/13 07:45:18;;;;;;;58.37;38.40;;;16.00;99.90;;;;;;5031512;28;20022;-74
2024/03/13 07:47:44;;;;;;;61.53;36.80;;;16.00;99.90;;;;;;5030266;28;20029;-75
2024/03/13 07:50:10;;;;;;;78.57;54.87;;;16.00;99.90;;;;;;5031096;28;20105;-74
2024/03/13 07:52:37;;;;;;;65.03;39.53;;;16.00;99.90;;;;;;5032305;28;20060;-74
2024/03/13 07:55:04;;;;;;;60.85;42.55;;;16.00;99.90;;;;;;5030610;28;20455;-74
2024/03/13 07:57:30;;;;;;;51.25;36.30;;;16.00;99.90;;;;;;5031332;28;20029;-74
2024/03/13 07:59:56;;;;;;;54.97;37.38;;;16.00;99.90;;;;;;5061521;28;20075;-75
2024/03/13 08:02:22;;;;;;;48.87;33.63;;;16.10;99.90;;;;;;5030455;28;20030;-73
2024/03/13 08:04:48;;;;;;;46.78;32.03;;;16.10;99.90;;;;;;5030161;28;20025;-72
2024/03/13 08:07:14;;;;;;;41.03;29.90;;;16.10;99.90;;;;;;5029632;28;20508;-73
2024/03/13 08:09:40;;;;;;;45.97;26.33;;;16.10;99.90;;;;;;5029633;28;20373;-73
2024/03/13 08:12:06;;;;;;;39.13;26.50;;;16.10;99.90;;;;;;5030923;28;20051;-72
2024/03/13 08:14:34;;;;;;;28.40;21.85;;;16.10;99.90;;;;;;5030227;28;20052;-73
2024/03/13 08:17:01;;;;;;;39.75;21.17;;;16.10;99.90;;;;;;5029708;28;20038;-73
2024/03/13 08:19:27;;;;;;;35.55;20.52;;;16.10;99.90;;;;;;5030293;28;20108;-75
2024/03/13 08:21:53;;;;;;;33.83;20.60;;;16.10;99.90;;;;;;5051499;28;20048;-73
2024/03/13 08:24:19;;;;;;;35.90;21.10;;;16.10;99.90;;;;;;5029801;28;20032;-74
2024/03/13 08:26:46;;;;;;;40.05;19.60;;;16.20;99.90;;;;;;5062870;28;20132;-73
2024/03/13 08:29:15;;;;;;;30.65;18.05;;;16.20;99.90;;;;;;5029739;28;20033;-74
2024/03/13 08:31:47;;;;;;;27.15;18.27;;;16.20;99.90;;;;;;5030191;28;20402;-73
2024/03/13 08:34:14;;;;;;;29.15;17.90;;;16.20;99.90;;;;;;5029088;28;20427;-75
2024/03/13 08:36:40;;;;;;;28.23;17.23;;;16.20;99.90;;;;;;5029390;28;20025;-73
2024/03/13 08:39:06;;;;;;;25.33;14.67;;;16.20;99.90;;;;;;5063021;28;20484;-73
2024/03/13 08:41:32;;;;;;;27.37;15.77;;;16.20;99.90;;;;;;5028978;28;20076;-73
2024/03/13 08:43:57;;;;;;;25.07;16.27;;;16.30;99.90;;;;;;5029194;28;20029;-74
2024/03/13 08:46:23;;;;;;;25.07;15.60;;;16.30;99.90;;;;;;5029287;28;20282;-74
2024/03/13 08:48:54;;;;;;;29.03;15.43;;;16.30;99.90;;;;;;5028984;28;20552;-73
2024/03/13 08:51:20;;;;;;;27.88;15.70;;;16.30;99.90;;;;;;5044559;28;20417;-74
2024/03/13 08:53:47;;;;;;;28.17;15.10;;;16.30;99.90;;;;;;5023031;28;20045;-74
2024/03/13 08:56:13;;;;;;;25.92;13.13;;;16.40;99.90;;;;;;5030623;28;20025;-74
2024/03/13 08:58:42;;;;;;;24.63;14.77;;;16.40;99.90;;;;;;5061332;28;20052;-74
2024/03/13 09:01:08;;;;;;;25.75;14.25;;;16.40;99.90;;;;;;5029770;28;20060;-74
2024/03/13 09:03:34;;;;;;;22.70;13.37;;;16.40;99.90;;;;;;5029217;28;20707;-74
2024/03/13 09:05:59;;;;;;;23.37;13.57;;;16.50;99.90;;;;;;5029344;28;20079;-74
2024/03/13 09:08:29;;;;;;;25.03;14.20;;;16.50;99.90;;;;;;5062663;28;20030;-74
2024/03/13 09:10:57;;;;;;;27.58;14.55;;;16.50;99.90;;;;;;5028564;28;20413;-73
2024/03/13 09:13:23;;;;;;;25.45;14.02;;;16.50;99.90;;;;;;5024319;28;20017;-73
2024/03/13 09:15:49;;;;;;;29.17;12.13;;;16.50;99.90;;;;;;5023305;28;20832;-73
2024/03/13 09:18:15;;;;;;;20.10;11.97;;;16.60;99.90;;;;;;5021906;28;20037;-74
2024/03/13 09:20:41;;;;;;;25.27;14.80;;;16.60;99.90;;;;;;5029591;28;20025;-74
2024/03/13 09:23:09;;;;;;;25.08;14.10;;;16.60;99.90;;;;;;5024410;28;20037;-73
2024/03/13 09:25:35;;;;;;;30.08;14.05;;;16.60;99.90;;;;;;5024122;28;20466;-73
2024/03/13 09:28:00;;;;;;;21.10;13.33;;;16.60;99.90;;;;;;5025072;28;20041;-73
2024/03/13 09:30:28;;;;;;;24.30;12.83;;;16.70;99.90;;;;;;5026016;28;20271;-73
2024/03/13 09:32:53;;;;;;;21.33;11.95;;;16.60;99.90;;;;;;5029368;28;20021;-74
2024/03/13 09:35:19;;;;;;;26.43;12.23;;;16.70;99.90;;;;;;5048707;28;20033;-72
2024/03/13 09:37:45;;;;;;;32.33;12.23;;;16.70;99.90;;;;;;5026168;28;20040;-74
2024/03/13 09:40:16;;;;;;;31.40;12.53;;;16.70;99.90;;;;;;5027547;28;20651;-75
2024/03/13 09:42:44;;;;;;;27.00;11.57;;;17.00;99.90;;;;;;5025996;28;20034;-76
2024/03/13 09:45:17;;;;;;;67.65;37.17;;;17.00;99.90;;;;;;5026464;28;20113;-75
2024/03/13 09:47:44;;;;;;;44.17;22.70;;;17.00;99.90;;;;;;5023973;28;20044;-76
2024/03/13 09:50:15;;;;;;;61.50;27.58;;;17.00;99.90;;;;;;5014729;28;20355;-76
2024/03/13 09:52:42;;;;;;;65.15;28.10;;;17.00;99.90;;;;;;5029059;28;20038;-77
2024/03/13 09:55:12;;;;;;;50.58;26.08;;;17.00;99.90;;;;;;5031104;28;20060;-76
2024/03/13 09:57:39;;;;;;;61.83;25.23;;;17.00;99.90;;;;;;5028966;28;20025;-76
2024/03/13 10:24:11;;;;;;;44.63;20.90;;;28.70;95.20;;;;;;5114934;27;20441;-76
2024/03/13 10:26:40;;;;;;;46.08;20.05;;;22.10;99.90;;;;;;5087766;28;20032;-77
2024/03/13 10:29:10;;;;;;;43.33;19.55;;;19.60;99.90;;;;;;5088485;28;20051;-78
2024/03/13 10:31:37;;;;;;;43.88;20.00;;;18.40;99.90;;;;;;5087733;28;20376;-78
2024/03/13 10:34:03;;;;;;;53.25;18.10;;;18.00;99.90;;;;;;5086825;28;20407;-75
2024/03/13 10:36:29;;;;;;;39.07;18.80;;;17.80;99.90;;;;;;5086900;28;20028;-77
2024/03/13 10:39:02;;;;;;;34.47;18.52;;;17.70;99.90;;;;;;5088631;28;20103;-77
2024/03/13 10:41:31;;;;;;;36.78;16.65;;;17.60;99.90;;;;;;5074779;28;20056;-78
2024/03/13 10:43:58;;;;;;;45.38;18.48;;;17.60;99.90;;;;;;5086904;28;20028;-77
2024/03/13 10:46:24;;;;;;;35.13;16.35;;;17.50;99.90;;;;;;5087082;28;20108;-78
2024/03/13 10:48:52;;;;;;;39.70;17.10;;;17.60;99.90;;;;;;5087518;28;20105;-78
2024/03/13 10:51:18;;;;;;;41.88;16.48;;;17.60;99.90;;;;;;5088863;28;20058;-80
2024/03/13 10:53:44;;;;;;;36.05;16.52;;;17.80;99.90;;;;;;5087734;28;20031;-78
2024/03/13 10:56:14;;;;;;;31.97;14.57;;;17.80;99.90;;;;;;5086403;28;20508;-77
2024/03/13 10:58:42;;;;;;;29.60;14.48;;;17.80;99.90;;;;;;5088941;28;20020;-78
2024/03/13 11:01:16;;;;;;;34.15;15.05;;;17.70;99.90;;;;;;5086616;28;20052;-79
2024/03/13 11:03:43;;;;;;;35.53;14.00;;;17.70;99.90;;;;;;5089004;28;20070;-77
2024/03/13 11:06:14;;;;;;;31.35;13.85;;;17.70;99.90;;;;;;5087273;28;20024;-78
2024/03/13 11:08:43;;;;;;;42.13;14.10;;;17.70;99.90;;;;;;5087226;28;20024;-77
2024/03/13 11:11:13;;;;;;;33.47;13.55;;;17.70;99.90;;;;;;5087634;28;20048;-81
2024/03/13 11:13:50;;;;;;;37.60;14.00;;;17.70;99.90;;;;;;5087247;28;20052;-78
2024/03/13 11:16:20;;;;;;;33.75;12.90;;;17.70;99.90;;;;;;5087484;28;20069;-79
2024/03/13 11:18:47;;;;;;;36.65;12.98;;;17.70;99.90;;;;;;5087448;28;20016;-79
2024/03/13 11:21:38;;;;;;;27.35;11.90;;;17.80;99.90;;;;;;5087178;28;20079;-79
2024/03/13 11:24:07;;;;;;;25.90;11.30;;;17.80;99.90;;;;;;5085951;28;20796;-79
2024/03/13 11:26:39;;;;;;;34.75;11.20;;;17.90;99.90;;;;;;5088303;28;20081;-78
2024/03/13 11:29:12;;;;;;;30.60;11.65;;;17.90;99.90;;;;;;5084438;28;20048;-80
2024/03/13 11:31:41;;;;;;;34.13;13.93;;;17.90;99.90;;;;;;5088625;28;20021;-83
2024/03/13 11:34:09;;;;;;;35.45;13.13;;;17.90;99.90;;;;;;5082598;28;20085;-83
2024/03/13 11:36:35;;;;;;;30.60;13.15;;;17.90;99.90;;;;;;5074424;28;20028;-86
2024/03/13 11:39:03;;;;;;;46.55;14.45;;;17.90;99.90;;;;;;5073848;28;20051;-81
2024/03/13 11:41:29;;;;;;;38.53;13.68;;;17.90;99.90;;;;;;5073829;28;20101;-83
2024/03/13 11:43:58;;;;;;;31.70;14.00;;;18.00;99.90;;;;;;5069740;28;20024;-76
2024/03/13 11:46:33;;;;;;;37.28;12.98;;;18.00;99.90;;;;;;5072733;28;20029;-81
2024/03/13 11:49:02;;;;;;;36.25;13.18;;;18.00;99.90;;;;;;5072513;28;20108;-78
2024/03/13 11:51:31;;;;;;;36.05;13.55;;;17.90;99.90;;;;;;5073489;28;20073;-80
2024/03/13 11:54:11;;;;;;;34.30;13.02;;;18.00;99.90;;;;;;5073335;28;20374;-77
2024/03/13 11:56:42;;;;;;;35.33;13.50;;;18.00;99.90;;;;;;5071795;28;20028;-78
2024/03/13 11:59:08;;;;;;;34.65;12.73;;;18.00;99.90;;;;;;5071220;28;20028;-79
2024/03/13 12:01:35;;;;;;;29.40;11.80;;;18.00;99.90;;;;;;5073523;28;20020;-83
2024/03/13 12:04:05;;;;;;;30.75;11.48;;;18.00;99.90;;;;;;5074159;28;20469;-85
2024/03/13 12:06:33;;;;;;;28.00;11.65;;;18.00;99.90;;;;;;5072587;28;20024;-79
2024/03/13 12:08:59;;;;;;;26.33;11.05;;;17.90;99.90;;;;;;5072936;28;20031;-80
2024/03/13 12:11:27;;;;;;;31.30;11.60;;;18.00;99.90;;;;;;5074785;28;20358;-81
2024/03/13 12:13:54;;;;;;;34.63;11.00;;;18.00;99.90;;;;;;5072672;28;20094;-79
2024/03/13 12:16:22;;;;;;;35.85;11.30;;;18.00;99.90;;;;;;5073020;28;20749;-79
2024/03/13 12:18:52;;;;;;;31.25;10.98;;;18.00;99.90;;;;;;5072185;28;20162;-89
2024/03/13 12:21:24;;;;;;;29.30;11.10;;;18.00;99.90;;;;;;5072945;28;20373;-80
2024/03/13 12:23:52;;;;;;;22.10;10.48;;;18.00;99.90;;;;;;5072011;28;20157;-78
2024/03/13 12:26:19;;;;;;;32.40;10.40;;;18.00;99.90;;;;;;5072706;28;20029;-77
2024/03/13 12:28:45;;;;;;;24.55;10.15;;;17.90;99.90;;;;;;5071129;28;20528;-77
2024/03/13 12:31:11;;;;;;;29.23;9.70;;;17.90;99.90;;;;;;5070002;28;20111;-78
2024/03/13 12:33:37;;;;;;;25.67;9.65;;;17.90;99.90;;;;;;5072635;28;20332;-78
2024/03/13 12:36:03;;;;;;;33.85;9.40;;;17.90;99.90;;;;;;5071782;28;20025;-77
2024/03/13 12:38:40;;;;;;;26.23;8.93;;;18.00;99.90;;;;;;5069174;28;20111;-77
2024/03/13 12:41:08;;;;;;;;;;;18.00;99.90;;;;;;5071369;28;20031;-77
2024/03/13 12:43:40;;;;;;;20.48;8.48;;;18.00;99.90;;;;;;5087104;28;19912;-76
2024/03/13 12:46:05;;;;;;;23.63;8.43;;;18.00;99.90;;;;;;5069998;28;20085;-76
2024/03/13 12:48:31;;;;;;;20.87;7.67;;;18.00;99.90;;;;;;5072020;28;20852;-78
2024/03/13 12:51:03;;;;;;;16.25;7.40;;;18.00;99.90;;;;;;5072064;28;20150;-77
2024/03/13 12:53:29;;;;;;;22.15;7.40;;;18.00;99.90;;;;;;5087538;28;20028;-75
2024/03/13 12:55:56;;;;;;;20.85;7.63;;;18.00;99.90;;;;;;5071888;28;20024;-77
2024/03/13 12:58:22;;;;;;;99.68;48.42;;;18.00;99.90;;;;;;5071665;28;20028;-76
2024/03/13 13:00:48;;;;;;;54.75;26.08;;;18.00;99.90;;;;;;5071459;28;20035;-78
2024/03/13 13:03:15;;;;;;;51.58;26.42;;;18.00;99.90;;;;;;5069918;28;20708;-76
2024/03/13 13:05:42;;;;;;;47.38;22.65;;;18.00;99.90;;;;;;5070468;28;20071;-76
2024/03/13 13:08:10;;;;;;;45.65;19.50;;;18.00;99.90;;;;;;5070454;28;20377;-78
2024/03/13 13:10:37;;;;;;;48.28;24.45;;;18.00;99.90;;;;;;5069567;28;20193;-77
2024/03/13 13:13:04;;;;;;;33.97;18.55;;;17.90;99.90;;;;;;5071492;28;20039;-80
2024/03/13 13:15:31;;;;;;;37.70;18.98;;;17.90;99.90;;;;;;5072512;28;20017;-79
2024/03/13 13:17:56;;;;;;;38.22;17.30;;;17.90;99.90;;;;;;5057676;28;20047;-76
2024/03/13 13:20:25;;;;;;;38.37;17.37;;;17.90;99.90;;;;;;5070047;28;20469;-83
2024/03/13 13:22:52;;;;;;;29.90;14.05;;;17.90;99.90;;;;;;5072207;28;20112;-78